createdAt,value
2019-04-05T00:01:05.069Z,99587.00
2019-04-05T00:03:35.607Z,99589.00
2019-04-05T00:06:06.132Z,99587.00
2019-04-05T00:08:36.702Z,99588.00
2019-04-05T00:11:07.605Z,99600.00
2019-04-05T00:13:38.101Z,99589.00
2019-04-05T00:16:10.104Z,99588.00
2019-04-05T00:18:40.500Z,99585.00
2019-04-05T00:21:13.601Z,99587.00
2019-04-05T00:23:44.020Z,99576.00
2019-04-05T00:26:14.721Z,99581.00
2019-04-05T00:28:45.330Z,99592.00
2019-04-05T00:31:15.934Z,99589.00
2019-04-05T00:33:46.588Z,99588.00
2019-04-05T00:36:17.280Z,99588.00
2019-04-05T00:38:47.762Z,99600.00
2019-04-05T00:41:20.113Z,99608.00
2019-04-05T00:43:51.801Z,99604.00
2019-04-05T00:46:22.907Z,99601.00
2019-04-05T00:48:53.541Z,99601.00
2019-04-05T00:51:24.251Z,99610.00
2019-04-05T00:53:57.530Z,99613.00
2019-04-05T00:56:28.116Z,99598.00
2019-04-05T00:58:58.614Z,99593.00
2019-04-05T01:01:29.041Z,99596.00
2019-04-05T01:03:59.851Z,99591.00
2019-04-05T01:06:30.838Z,99592.00
2019-04-05T01:09:01.337Z,99593.00
2019-04-05T01:11:32.071Z,99597.00
2019-04-05T01:14:03.181Z,99588.00
2019-04-05T01:16:33.929Z,99601.00
2019-04-05T01:19:04.366Z,99595.00
2019-04-05T01:21:40.003Z,99587.00
2019-04-05T01:24:11.892Z,99594.00
2019-04-05T01:26:44.861Z,99587.00
2019-04-05T01:29:15.406Z,99588.00
2019-04-05T01:31:45.834Z,99574.00
2019-04-05T01:34:16.357Z,99588.00
2019-04-05T01:36:46.872Z,99591.00
2019-04-05T01:39:17.412Z,99599.00
2019-04-05T01:41:47.850Z,99615.00
2019-04-05T01:44:18.756Z,99624.00
2019-04-05T01:46:49.829Z,99627.00
2019-04-05T01:49:20.623Z,99621.00
2019-04-05T01:51:51.196Z,99638.00
2019-04-05T01:54:22.047Z,99630.00
2019-04-05T01:56:52.528Z,99631.00
2019-04-05T01:59:22.966Z,99642.00
2019-04-05T02:01:53.544Z,99634.00
2019-04-05T02:04:24.190Z,99643.00
2019-04-05T02:06:55.064Z,99640.00
2019-04-05T02:09:25.557Z,99645.00
2019-04-05T02:11:58.256Z,99648.00
2019-04-05T02:14:28.688Z,99648.00
2019-04-05T02:16:59.073Z,99649.00
2019-04-05T02:19:29.837Z,99645.00
2019-04-05T02:22:00.506Z,99652.00
2019-04-05T02:24:31.004Z,99656.00
2019-04-05T02:27:01.978Z,99664.00
2019-04-05T02:29:33.627Z,99662.00
2019-04-05T02:32:04.567Z,99667.00
2019-04-05T02:34:34.965Z,99662.00
2019-04-05T02:37:05.406Z,99674.00
2019-04-05T02:39:35.830Z,99668.00
2019-04-05T02:42:06.295Z,99669.00
2019-04-05T02:44:38.015Z,99675.00
2019-04-05T02:47:10.477Z,99668.00
2019-04-05T02:49:42.961Z,99669.00
2019-04-05T02:52:15.743Z,99655.00
2019-04-05T02:54:47.247Z,99652.00
2019-04-05T02:57:18.099Z,99657.00
2019-04-05T02:59:48.896Z,99651.00
2019-04-05T03:02:19.892Z,99655.00
2019-04-05T03:04:50.279Z,99647.00
2019-04-05T03:07:21.003Z,99653.00
2019-04-05T03:09:51.381Z,99650.00
2019-04-05T03:12:22.790Z,99654.00
2019-04-05T03:14:53.392Z,99648.00
2019-04-05T03:17:24.241Z,99656.00
2019-04-05T03:19:57.572Z,99645.00
2019-04-05T03:22:30.363Z,99652.00
2019-04-05T03:25:01.617Z,99648.00
2019-04-05T03:27:34.978Z,99657.00
2019-04-05T03:30:06.415Z,99657.00
2019-04-05T03:32:37.314Z,99652.00
2019-04-05T03:35:08.068Z,99646.00
2019-04-05T03:37:38.872Z,99654.00
2019-04-05T03:40:10.167Z,99658.00
2019-04-05T03:42:41.078Z,99652.00
2019-04-05T03:45:11.951Z,99649.00
2019-04-05T03:47:42.949Z,99646.00
2019-04-05T03:50:13.641Z,99651.00
2019-04-05T03:52:44.685Z,99655.00
2019-04-05T03:55:18.003Z,99655.00
2019-04-05T03:57:51.766Z,99660.00
2019-04-05T04:00:22.149Z,99659.00
2019-04-05T04:02:52.562Z,99657.00
2019-04-05T04:05:23.211Z,99660.00
2019-04-05T04:07:53.993Z,99660.00
2019-04-05T04:10:26.879Z,99657.00
2019-04-05T04:12:57.804Z,99659.00
2019-04-05T04:15:31.784Z,99660.00
2019-04-05T04:18:03.767Z,99661.00
2019-04-05T04:20:42.427Z,99662.00
2019-04-05T04:23:14.092Z,99672.00
2019-04-05T04:25:45.021Z,99668.00
2019-04-05T04:28:15.673Z,99666.00
2019-04-05T04:30:46.640Z,99669.00
2019-04-05T04:33:17.926Z,99654.00
2019-04-05T04:35:48.262Z,99670.00
2019-04-05T04:38:18.720Z,99670.00
2019-04-05T04:40:49.527Z,99674.00
2019-04-05T04:43:21.068Z,99679.00
2019-04-05T04:45:51.858Z,99672.00
2019-04-05T04:48:22.672Z,99682.00
2019-04-05T04:50:53.399Z,99688.00
2019-04-05T04:53:24.384Z,99700.00
2019-04-05T04:55:55.007Z,99696.00
2019-04-05T04:58:25.401Z,99711.00
2019-04-05T05:00:56.620Z,99715.00
2019-04-05T05:03:27.584Z,99722.00
2019-04-05T05:05:58.174Z,99721.00
2019-04-05T05:08:28.873Z,99712.00
2019-04-05T05:10:59.410Z,99717.00
2019-04-05T05:13:32.963Z,99724.00
2019-04-05T05:16:03.593Z,99728.00
2019-04-05T05:18:34.430Z,99733.00
2019-04-05T05:21:05.598Z,99733.00
2019-04-05T05:23:36.501Z,99726.00
2019-04-05T05:26:07.301Z,99729.00
2019-04-05T05:28:37.955Z,99731.00
2019-04-05T05:31:08.716Z,99735.00
2019-04-05T05:33:39.703Z,99734.00
2019-04-05T05:36:10.789Z,99742.00
2019-04-05T05:38:41.595Z,99737.00
2019-04-05T05:41:12.385Z,99748.00
2019-04-05T05:43:45.762Z,99756.00
2019-04-05T05:46:18.016Z,99758.00
2019-04-05T05:48:49.310Z,99752.00
2019-04-05T05:51:20.573Z,99761.00
2019-04-05T05:53:51.447Z,99763.00
2019-04-05T05:56:21.933Z,99753.00
2019-04-05T05:58:55.325Z,99761.00
2019-04-05T06:01:28.171Z,99767.00
2019-04-05T06:03:59.091Z,99761.00
2019-04-05T06:06:29.675Z,99763.00
2019-04-05T06:09:00.504Z,99754.00
2019-04-05T06:11:31.343Z,99758.00
2019-04-05T06:14:02.052Z,99749.00
2019-04-05T06:16:45.594Z,99758.00
2019-04-05T06:19:05.512Z,99748.00
2019-04-05T06:21:36.152Z,99743.00
2019-04-05T06:24:06.800Z,99747.00
2019-04-05T06:26:37.614Z,99753.00
2019-04-05T06:29:08.274Z,99754.00
2019-04-05T06:31:39.851Z,99757.00
2019-04-05T06:34:10.604Z,99759.00
2019-04-05T06:36:41.548Z,99758.00
2019-04-05T06:39:12.122Z,99758.00
2019-04-05T06:41:43.396Z,99765.00
2019-04-05T06:44:14.210Z,99755.00
2019-04-05T06:46:45.135Z,99765.00
2019-04-05T06:49:16.112Z,99763.00
2019-04-05T06:51:46.745Z,99769.00
2019-04-05T06:54:17.719Z,99768.00
2019-04-05T06:56:48.550Z,99762.00
2019-04-05T06:59:21.972Z,99763.00
2019-04-05T07:01:52.849Z,99773.00
2019-04-05T07:04:23.668Z,99779.00
2019-04-05T07:06:54.365Z,99780.00
2019-04-05T07:09:26.229Z,99778.00
2019-04-05T07:11:57.201Z,99777.00
2019-04-05T07:14:30.525Z,99775.00
2019-04-05T07:17:00.729Z,99778.00
2019-04-05T07:19:31.481Z,99779.00
2019-04-05T07:22:02.144Z,99786.00
2019-04-05T07:24:33.070Z,99783.00
2019-04-05T07:27:03.895Z,99788.00
2019-04-05T07:29:35.082Z,99786.00
2019-04-05T07:32:05.940Z,99792.00
2019-04-05T07:34:36.727Z,99789.00
2019-04-05T07:37:07.670Z,99788.00
2019-04-05T07:39:38.622Z,99791.00
2019-04-05T07:42:09.212Z,99792.00
2019-04-05T07:44:40.515Z,99795.00
2019-04-05T07:47:14.147Z,99789.00
2019-04-05T07:49:44.778Z,99784.00
2019-04-05T07:52:15.786Z,99793.00
2019-04-05T07:54:46.742Z,99798.00
2019-04-05T07:57:17.728Z,99801.00
2019-04-05T07:59:48.420Z,99795.00
2019-04-05T08:02:19.200Z,99804.00
2019-04-05T08:04:50.060Z,99799.00
2019-04-05T08:07:22.969Z,99798.00
2019-04-05T08:09:53.887Z,99798.00
2019-04-05T08:12:25.317Z,99793.00
2019-04-05T08:14:56.875Z,99794.00
2019-04-05T08:17:29.958Z,99794.00
2019-04-05T08:20:00.753Z,99788.00
2019-04-05T08:22:32.392Z,99797.00
2019-04-05T08:25:05.239Z,99791.00
2019-04-05T08:27:35.765Z,99798.00
2019-04-05T08:30:06.887Z,99793.00
2019-04-05T08:32:37.559Z,99792.00
2019-04-05T08:35:08.314Z,99796.00
2019-04-05T08:37:39.137Z,99793.00
2019-04-05T08:40:10.644Z,99800.00
2019-04-05T08:42:41.585Z,99800.00
2019-04-05T08:45:13.288Z,99790.00
2019-04-05T08:47:46.740Z,99792.00
2019-04-05T08:50:20.308Z,99803.00
2019-04-05T08:52:51.376Z,99805.00
2019-04-05T08:55:21.960Z,99801.00
2019-04-05T08:57:53.195Z,99808.00
2019-04-05T09:00:23.993Z,99812.00
2019-04-05T09:02:54.666Z,99803.00
2019-04-05T09:05:28.202Z,99806.00
2019-04-05T09:07:59.359Z,99817.00
2019-04-05T09:10:30.035Z,99810.00
2019-04-05T09:13:00.703Z,99812.00
2019-04-05T09:15:31.426Z,99812.00
2019-04-05T09:18:01.971Z,99818.00
2019-04-05T09:20:32.840Z,99810.00
2019-04-05T09:23:04.057Z,99831.00
2019-04-05T09:25:34.694Z,99817.00
2019-04-05T09:28:05.472Z,99817.00
2019-04-05T09:30:36.157Z,99811.00
2019-04-05T09:33:06.746Z,99828.00
2019-04-05T09:35:37.255Z,99812.00
2019-04-05T09:38:07.805Z,99825.00
2019-04-05T09:40:38.661Z,99812.00
2019-04-05T09:43:09.733Z,99827.00
2019-04-05T09:45:40.586Z,99822.00
2019-04-05T09:48:11.886Z,99811.00
2019-04-05T09:50:42.511Z,99811.00
2019-04-05T09:53:13.209Z,99809.00
2019-04-05T09:55:44.395Z,99808.00
2019-04-05T09:58:16.371Z,99807.00
2019-04-05T10:00:53.186Z,99812.00
2019-04-05T10:03:24.142Z,99819.00
2019-04-05T10:05:55.386Z,99812.00
2019-04-05T10:08:26.120Z,99832.00
2019-04-05T10:10:57.677Z,99826.00
2019-04-05T10:13:28.263Z,99828.00
2019-04-05T10:15:59.034Z,99823.00
2019-04-05T10:18:30.750Z,99824.00
2019-04-05T10:21:01.399Z,99830.00
2019-04-05T10:23:32.033Z,99838.00
2019-04-05T10:26:03.464Z,99847.00
2019-04-05T10:28:34.065Z,99837.00
2019-04-05T10:31:04.645Z,99837.00
2019-04-05T10:33:35.609Z,99834.00
2019-04-05T10:36:06.223Z,99832.00
2019-04-05T10:38:36.947Z,99839.00
2019-04-05T10:41:08.205Z,99822.00
2019-04-05T10:43:41.775Z,99839.00
2019-04-05T10:46:12.522Z,99836.00
2019-04-05T10:48:43.175Z,99836.00
2019-04-05T10:51:13.902Z,99838.00
2019-04-05T10:53:44.497Z,99832.00
2019-04-05T10:56:15.308Z,99833.00
2019-04-05T10:58:47.511Z,99813.00
2019-04-05T11:01:18.181Z,99832.00
2019-04-05T11:03:48.927Z,99828.00
2019-04-05T11:06:20.776Z,99837.00
2019-04-05T11:08:51.526Z,99837.00
2019-04-05T11:11:22.022Z,99849.00
2019-04-05T11:13:52.568Z,99849.00
2019-04-05T11:16:23.098Z,99848.00
2019-04-05T11:18:53.594Z,99849.00
2019-04-05T11:21:24.161Z,99848.00
2019-04-05T11:23:57.218Z,99852.00
2019-04-05T11:26:27.856Z,99855.00
2019-04-05T11:28:58.472Z,99855.00
2019-04-05T11:31:29.136Z,99851.00
2019-04-05T11:33:59.754Z,99862.00
2019-04-05T11:36:30.395Z,99859.00
2019-04-05T11:39:01.601Z,99872.00
2019-04-05T11:41:33.590Z,99861.00
2019-04-05T11:44:04.243Z,99865.00
2019-04-05T11:46:37.145Z,99860.00
2019-04-05T11:49:10.568Z,99865.00
2019-04-05T11:51:43.271Z,99870.00
2019-04-05T11:54:14.503Z,99872.00
2019-04-05T11:56:48.061Z,99874.00
2019-04-05T11:59:18.679Z,99866.00
2019-04-05T12:02:00.753Z,99871.00
2019-04-05T12:04:31.371Z,99867.00
2019-04-05T12:07:02.327Z,99874.00
2019-04-05T12:09:32.991Z,99873.00
2019-04-05T12:12:09.571Z,99875.00
2019-04-05T12:14:40.146Z,99872.00
2019-04-05T12:17:10.977Z,99874.00
2019-04-05T12:19:41.608Z,99868.00
2019-04-05T12:22:12.280Z,99880.00
2019-04-05T12:24:43.078Z,99877.00
2019-04-05T12:27:13.556Z,99877.00
2019-04-05T12:29:44.062Z,99873.00
2019-04-05T12:32:18.118Z,99872.00
2019-04-05T12:34:49.479Z,99878.00
2019-04-05T12:37:22.135Z,99880.00
2019-04-05T12:40:00.523Z,99875.00
2019-04-05T12:42:37.808Z,99868.00
2019-04-05T12:45:14.644Z,99862.00
2019-04-05T12:47:45.418Z,99866.00
2019-04-05T12:50:16.498Z,99859.00
2019-04-05T12:52:47.224Z,99853.00
2019-04-05T12:55:23.565Z,99865.00
2019-04-05T12:57:51.655Z,99869.00
2019-04-05T13:00:26.068Z,99869.00
2019-04-05T13:02:57.276Z,99857.00
2019-04-05T13:05:28.144Z,99864.00
2019-04-05T13:07:58.771Z,99869.00
2019-04-05T13:10:30.571Z,99867.00
2019-04-05T13:13:01.370Z,99857.00
2019-04-05T13:15:32.173Z,99860.00
2019-04-05T13:18:02.975Z,99852.00
2019-04-05T13:20:33.616Z,99857.00
2019-04-05T13:23:06.478Z,99866.00
2019-04-05T13:25:38.772Z,99854.00
2019-04-05T13:28:13.650Z,99854.00
2019-04-05T13:30:41.785Z,99845.00
2019-04-05T13:33:12.391Z,99843.00
2019-04-05T13:35:43.630Z,99845.00
2019-04-05T13:38:14.231Z,99843.00
2019-04-05T13:40:45.128Z,99845.00
2019-04-05T13:43:17.688Z,99852.00
2019-04-05T13:45:48.131Z,99850.00
2019-04-05T13:48:18.894Z,99847.00
2019-04-05T13:50:49.458Z,99849.00
2019-04-05T13:53:20.412Z,99859.00
2019-04-05T13:55:51.042Z,99852.00
2019-04-05T13:58:21.558Z,99844.00
2019-04-05T14:00:52.282Z,99843.00
2019-04-05T14:03:23.014Z,99849.00
2019-04-05T14:05:55.292Z,99841.00
2019-04-05T14:08:25.854Z,99838.00
2019-04-05T14:10:56.789Z,99843.00
2019-04-05T14:13:27.380Z,99840.00
2019-04-05T14:15:59.647Z,99836.00
2019-04-05T14:18:30.644Z,99843.00
2019-04-05T14:21:02.157Z,99849.00
2019-04-05T14:23:33.110Z,99832.00
2019-04-05T14:26:04.653Z,99835.00
2019-04-05T14:28:35.573Z,99832.00
2019-04-05T14:31:06.091Z,99847.00
2019-04-05T14:33:36.743Z,99842.00
2019-04-05T14:36:07.891Z,99843.00
2019-04-05T14:38:39.047Z,99841.00
2019-04-05T14:41:09.487Z,99845.00
2019-04-05T14:43:40.070Z,99843.00
2019-04-05T14:46:10.655Z,99832.00
2019-04-05T14:48:42.244Z,99831.00
2019-04-05T14:51:13.747Z,99834.00
2019-04-05T14:53:44.784Z,99832.00
2019-04-05T14:56:18.723Z,99831.00
2019-04-05T14:58:49.461Z,99849.00
2019-04-05T15:01:20.534Z,99840.00
2019-04-05T15:03:51.708Z,99841.00
2019-04-05T15:06:22.451Z,99839.00
2019-04-05T15:08:53.542Z,99848.00
2019-04-05T15:11:24.104Z,99850.00
2019-04-05T15:13:55.055Z,99842.00
2019-04-05T15:16:25.663Z,99839.00
2019-04-05T15:18:56.324Z,99841.00
2019-04-05T15:21:26.826Z,99848.00
2019-04-05T15:23:57.592Z,99839.00
2019-04-05T15:26:29.274Z,99832.00
2019-04-05T15:29:00.314Z,99843.00
2019-04-05T15:31:31.144Z,99840.00
2019-04-05T15:34:04.510Z,99850.00
2019-04-05T15:36:35.569Z,99844.00
2019-04-05T15:39:09.383Z,99855.00
2019-04-05T15:41:40.187Z,99853.00
2019-04-05T15:44:10.714Z,99854.00
2019-04-05T15:46:41.517Z,99867.00
2019-04-05T15:49:12.447Z,99860.00
2019-04-05T15:51:43.199Z,99864.00
2019-04-05T15:54:15.903Z,99855.00
2019-04-05T15:56:46.790Z,99853.00
2019-04-05T15:59:17.729Z,99854.00
2019-04-05T16:01:49.105Z,99861.00
2019-04-05T16:04:20.019Z,99866.00
2019-04-05T16:06:50.986Z,99868.00
2019-04-05T16:09:23.020Z,99863.00
2019-04-05T16:11:54.361Z,99868.00
2019-04-05T16:14:27.040Z,99852.00
2019-04-05T16:16:58.102Z,99860.00
2019-04-05T16:19:28.788Z,99871.00
2019-04-05T16:21:59.399Z,99864.00
2019-04-05T16:24:30.465Z,99865.00
2019-04-05T16:27:02.983Z,99870.00
2019-04-05T16:29:35.556Z,99874.00
2019-04-05T16:32:09.675Z,99874.00
2019-04-05T16:34:41.378Z,99884.00
2019-04-05T16:37:11.754Z,99882.00
2019-04-05T16:39:42.608Z,99890.00
2019-04-05T16:42:13.102Z,99887.00
2019-04-05T16:44:43.578Z,99886.00
2019-04-05T16:47:14.261Z,99886.00
2019-04-05T16:49:44.843Z,99888.00
2019-04-05T16:52:15.543Z,99890.00
2019-04-05T16:54:46.705Z,99891.00
2019-04-05T16:57:17.279Z,99891.00
2019-04-05T16:59:47.839Z,99883.00
2019-04-05T17:02:18.329Z,99877.00
2019-04-05T17:04:49.033Z,99882.00
2019-04-05T17:07:19.729Z,99895.00
2019-04-05T17:09:50.500Z,99876.00
2019-04-05T17:12:21.083Z,99881.00
2019-04-05T17:14:51.586Z,99888.00
2019-04-05T17:17:22.225Z,99891.00
2019-04-05T17:19:52.735Z,99886.00
2019-04-05T17:22:23.375Z,99876.00
2019-04-05T17:24:53.996Z,99876.00
2019-04-05T17:27:24.701Z,99886.00
2019-04-05T17:29:55.274Z,99890.00
2019-04-05T17:32:25.900Z,99893.00
2019-04-05T17:34:56.327Z,99896.00
2019-04-05T17:37:26.956Z,99893.00
2019-04-05T17:39:57.493Z,99892.00
2019-04-05T17:42:28.222Z,99894.00
2019-04-05T17:44:58.586Z,99896.00
2019-04-05T17:47:28.936Z,99901.00
2019-04-05T17:49:59.666Z,99894.00
2019-04-05T17:52:30.015Z,99905.00
2019-04-05T17:55:00.318Z,99900.00
2019-04-05T17:57:31.071Z,99905.00
2019-04-05T18:00:03.551Z,99909.00
2019-04-05T18:02:33.881Z,99913.00
2019-04-05T18:05:04.893Z,99913.00
2019-04-05T18:07:35.260Z,99914.00
2019-04-05T18:10:06.046Z,99912.00
2019-04-05T18:12:36.538Z,99911.00
2019-04-05T18:15:07.269Z,99920.00
2019-04-05T18:17:37.569Z,99918.00
2019-04-05T18:20:09.989Z,99912.00
2019-04-05T18:22:40.761Z,99905.00
2019-04-05T18:25:14.335Z,99914.00
2019-04-05T18:27:45.478Z,99918.00
2019-04-05T18:30:16.059Z,99919.00
2019-04-05T18:32:46.539Z,99916.00
2019-04-05T18:35:17.359Z,99930.00
2019-04-05T18:37:47.844Z,99937.00
2019-04-05T18:40:18.307Z,99936.00
2019-04-05T18:42:49.149Z,99944.00
2019-04-05T18:45:19.621Z,99941.00
2019-04-05T18:47:50.412Z,99953.00
2019-04-05T18:50:21.186Z,99952.00
2019-04-05T18:52:51.932Z,99947.00
2019-04-05T18:55:22.795Z,99949.00
2019-04-05T18:57:53.187Z,99950.00
2019-04-05T19:00:23.886Z,99944.00
2019-04-05T19:02:54.775Z,99961.00
2019-04-05T19:05:27.350Z,99949.00
2019-04-05T19:07:57.749Z,99964.00
2019-04-05T19:10:36.803Z,99965.00
2019-04-05T19:13:00.888Z,99956.00
2019-04-05T19:15:31.399Z,99966.00
2019-04-05T19:18:03.781Z,99976.00
2019-04-05T19:20:36.809Z,99952.00
2019-04-05T19:23:08.754Z,99968.00
2019-04-05T19:25:39.473Z,99954.00
2019-04-05T19:28:10.727Z,99956.00
2019-04-05T19:48:35.019Z,99943.00
2019-04-05T19:51:04.807Z,99945.00
2019-04-05T19:53:36.899Z,99935.00
2019-04-05T19:56:07.385Z,99939.00
2019-04-05T19:58:37.942Z,99949.00
2019-04-05T20:01:08.623Z,99935.00
2019-04-05T20:03:39.003Z,99945.00
2019-04-05T20:06:09.690Z,99947.00
2019-04-05T20:08:40.381Z,99939.00
2019-04-05T20:11:10.778Z,99942.00
2019-04-05T20:13:41.377Z,99937.00
2019-04-05T20:16:12.006Z,99950.00
2019-04-05T20:18:42.458Z,99944.00
2019-04-05T20:21:13.113Z,99934.00
2019-04-05T20:23:47.678Z,99945.00
2019-04-05T20:26:15.828Z,99933.00
2019-04-05T20:28:48.776Z,99928.00
2019-04-05T20:31:19.438Z,99936.00
2019-04-05T20:33:50.022Z,99933.00
2019-04-05T20:36:20.909Z,99935.00
2019-04-05T20:38:51.362Z,99941.00
2019-04-05T20:41:22.228Z,99958.00
2019-04-05T20:43:52.639Z,99948.00
2019-04-05T20:46:23.477Z,99951.00
2019-04-05T20:48:54.398Z,99961.00
2019-04-05T20:51:24.870Z,99946.00
2019-04-05T20:53:55.477Z,99947.00
2019-04-05T20:56:26.056Z,99956.00
2019-04-05T20:58:56.866Z,99957.00
2019-04-05T21:01:27.882Z,99959.00
2019-04-05T21:03:59.474Z,99958.00
2019-04-05T21:06:29.885Z,99957.00
2019-04-05T21:09:00.681Z,99961.00
2019-04-05T21:11:31.359Z,99963.00
2019-04-05T21:14:02.195Z,99956.00
2019-04-05T21:16:32.957Z,99952.00
2019-04-05T21:19:05.134Z,99959.00
2019-04-05T21:21:35.698Z,99961.00
2019-04-05T21:24:06.490Z,99967.00
2019-04-05T21:26:37.296Z,99964.00
2019-04-05T21:29:08.870Z,99972.00
2019-04-05T21:31:39.586Z,99982.00
2019-04-05T21:34:10.537Z,99982.00
2019-04-05T21:36:41.265Z,99982.00
2019-04-05T21:39:12.354Z,99976.00
2019-04-05T21:41:42.861Z,99987.00
2019-04-05T21:44:13.691Z,99975.00
2019-04-05T21:46:44.355Z,99985.00
2019-04-05T21:49:15.053Z,99973.00
2019-04-05T21:51:45.643Z,99987.00
2019-04-05T21:54:16.325Z,99994.00
2019-04-05T21:56:46.865Z,99980.00
2019-04-05T21:59:18.787Z,99983.00
2019-04-05T22:01:49.727Z,99981.00
2019-04-05T22:04:20.421Z,99986.00
2019-04-05T22:06:53.686Z,99987.00
2019-04-05T22:09:24.880Z,99993.00
2019-04-05T22:11:55.694Z,99983.00
2019-04-05T22:14:27.461Z,99978.00
2019-04-05T22:16:57.920Z,99975.00
2019-04-05T22:19:28.799Z,99985.00
2019-04-05T22:22:03.301Z,99988.00
2019-04-05T22:24:36.293Z,99984.00
2019-04-05T22:27:07.080Z,99981.00
2019-04-05T22:29:37.951Z,99980.00
2019-04-05T22:32:08.836Z,99968.00
2019-04-05T22:34:39.312Z,99973.00
2019-04-05T22:37:09.860Z,99976.00
2019-04-05T22:39:48.622Z,99961.00
2019-04-05T22:42:19.504Z,99963.00
2019-04-05T22:44:50.157Z,99959.00
2019-04-05T22:47:23.955Z,99968.00
2019-04-05T22:49:57.229Z,99964.00
2019-04-05T22:52:30.094Z,99972.00
2019-04-05T22:55:10.562Z,99954.00
2019-04-05T22:57:34.343Z,99965.00
2019-04-05T23:00:05.471Z,99975.00
2019-04-05T23:02:38.783Z,99968.00
2019-04-05T23:05:09.410Z,99971.00
2019-04-05T23:07:39.817Z,99979.00
2019-04-05T23:10:10.572Z,99975.00
2019-04-05T23:12:41.277Z,99982.00
2019-04-05T23:15:12.146Z,99984.00
2019-04-05T23:17:42.739Z,99985.00
2019-04-05T23:20:13.626Z,99987.00
2019-04-05T23:22:45.202Z,99980.00
2019-04-05T23:25:21.801Z,99988.00
2019-04-05T23:27:48.188Z,100000.00
2019-04-05T23:30:19.977Z,99998.00
2019-04-05T23:32:50.726Z,99999.00
2019-04-05T23:35:21.154Z,99981.00
2019-04-05T23:37:51.875Z,99989.00
2019-04-05T23:40:22.736Z,99992.00
2019-04-05T23:42:53.086Z,99996.00
2019-04-05T23:45:23.931Z,99994.00
2019-04-05T23:47:54.416Z,100001.00
2019-04-05T23:50:24.837Z,99996.00
2019-04-05T23:52:55.504Z,99996.00
2019-04-05T23:55:33.266Z,100004.00
2019-04-05T23:57:59.663Z,99993.00
